Terminal Aerodrome Forecast
Issued by NWS Anchorage, AK

Current Version | Previous Version | Text Only | Print | Product List | Glossary On
Versions: 1 2 3 4 5 6 7 8 9 10 11 12 13 14 15 16 17 18 19 20 21 22 23 24 25 26 27
000
FTAK31 PANC 012059 AAA
TAFANC
TAF AMD
PANC 012059Z 0121/0224 22007KT P6SM SCT080 BKN200
     FM020600 17013KT P6SM BKN060 OVC100
     FM022000 26010KT P6SM VCSH SCT040 BKN080=

USA.gov is the U.S. government's official web portal to all federal, state and local government web resources and services.